Lyndhurst, Ohio
Current Conditions -  °F | °C
As of 3:45 PM on Saturday 22 Nov 2014 (Local Time) from KCGF Reporting Station
Overcast Overcast  
Wind Chill: 40°   Ceiling: 4000
Heat Index: 46°   Visibility: 10mi
Dew Point: 30°   Wind: 16mph
Humidity: 53%   Direction: 230°SW
Pressure: 30.04"   Gusts: NA
Location:  41.5003°N, 81.466°W
Report Text: KCGF 222045Z 23014KT 10SM BKN040 OVC060 08/M01 A3004
Loading
Personal Weather Stations






























Interactive Weather Map New forecast layout! Learn more

10-Day Weather Forecast

Advertisements
Track Severe Weather on mobile